Time;durP1;ratioP1;P1;durP2;ratioP2;P2;SDS_P1;SDS_P2;PMS_P1;PMS_P2;Temp;Humidity;BMP_temperature;BMP_pressure;BME280_temperature;BME280_humidity;BME280_pressure;Samples;Min_cycle;Max_cycle;Signal;HPM_P1;HPM_P2
2022/04/27 00:01:51;;;;;;;8.48;2.58;;;;;;;16.60;68.29;100267.88;5068714;28;20052;-80
2022/04/27 00:04:18;;;;;;;10.23;2.53;;;;;;;16.67;68.53;100279.50;5069717;28;20075;-80
2022/04/27 00:06:45;;;;;;;11.10;2.45;;;;;;;16.62;68.42;100270.38;5066983;28;20052;-80
2022/04/27 00:09:12;;;;;;;6.28;2.35;;;;;;;16.72;68.29;100281.34;5068325;28;20853;-80
2022/04/27 00:11:39;;;;;;;15.88;3.13;;;;;;;16.49;68.17;100239.16;5069068;28;20057;-81
2022/04/27 00:14:06;;;;;;;9.68;2.25;;;;;;;16.34;68.35;100212.28;5072394;28;20127;-81
2022/04/27 00:16:33;;;;;;;6.90;1.88;;;;;;;16.58;68.21;100259.75;5065357;28;20079;-81
2022/04/27 00:19:01;;;;;;;14.07;2.13;;;;;;;16.75;68.40;100275.06;5069426;28;20127;-77
2022/04/27 00:21:28;;;;;;;16.63;1.92;;;;;;;16.28;68.08;100198.69;5067086;28;20076;-77
2022/04/27 00:23:55;;;;;;;10.73;2.33;;;;;;;16.53;67.83;100239.34;5067956;28;20075;-76
2022/04/27 00:26:22;;;;;;;10.82;1.88;;;;;;;16.69;67.98;100262.28;5071473;28;20078;-78
2022/04/27 00:28:48;;;;;;;5.95;1.67;;;;;;;16.85;67.85;100282.38;5070701;28;20048;-78
2022/04/27 00:31:15;;;;;;;10.13;2.72;;;;;;;16.77;67.91;100273.59;5073526;28;20068;-79
2022/04/27 00:33:42;;;;;;;11.82;2.17;;;;;;;16.88;68.23;100291.00;5074895;28;20044;-79
2022/04/27 00:36:09;;;;;;;9.80;2.80;;;;;;;16.80;67.80;100272.09;5070830;28;20474;-80
2022/04/27 00:38:36;;;;;;;4.57;1.88;;;;;;;16.89;68.23;100274.91;5072488;28;20499;-78
2022/04/27 00:41:03;;;;;;;7.10;2.15;;;;;;;16.89;68.16;100280.56;5072814;28;20079;-79
2022/04/27 00:43:41;;;;;;;8.80;2.05;;;;;;;16.88;67.91;100273.25;5069448;28;20053;-78
2022/04/27 00:46:11;;;;;;;13.25;2.22;;;;;;;16.35;68.12;100182.13;5067697;28;20107;-78
2022/04/27 00:48:39;;;;;;;7.13;1.80;;;;;;;16.87;68.08;100261.16;5071460;28;20049;-77
2022/04/27 00:51:07;;;;;;;5.38;2.10;;;;;;;16.86;68.30;100258.69;5073384;28;20078;-76
2022/04/27 00:53:35;;;;;;;10.77;2.45;;;;;;;16.63;68.10;100221.28;5071846;28;20049;-77
2022/04/27 00:56:03;;;;;;;11.80;3.08;;;;;;;16.32;68.07;100169.50;5072352;28;20066;-83
2022/04/27 00:58:30;;;;;;;7.97;1.90;;;;;;;16.94;68.40;100277.59;5073082;28;20442;-81
2022/04/27 01:01:17;;;;;;;13.25;2.70;;;;;;;16.84;68.19;100266.63;5058988;28;20419;-82
2022/04/27 01:03:44;;;;;;;10.00;2.47;;;;;;;16.78;68.03;100252.66;5076646;28;20048;-83
2022/04/27 01:06:11;;;;;;;8.52;2.55;;;;;;;16.95;68.22;100268.78;5076452;28;20053;-82
2022/04/27 01:08:39;;;;;;;9.50;3.28;;;;;;;16.97;68.00;100263.66;5074603;28;20040;-83
2022/04/27 01:11:06;;;;;;;20.27;2.67;;;;;;;16.68;67.89;100216.31;5073613;28;20515;-83
2022/04/27 01:13:34;;;;;;;5.97;2.58;;;;;;;17.02;68.03;100274.75;5058692;28;20087;-85
2022/04/27 01:16:02;;;;;;;9.82;2.47;;;;;;;16.96;67.89;100276.13;5062795;28;20547;-85
2022/04/27 01:18:29;;;;;;;9.07;2.63;;;;;;;16.90;68.21;100263.31;5070635;28;20048;-86
2022/04/27 01:20:56;;;;;;;14.68;2.10;;;;;;;16.91;67.92;100262.16;5072450;28;20125;-85
2022/04/27 01:23:23;;;;;;;11.02;2.75;;;;;;;16.85;68.03;100257.00;5074898;28;20082;-83
2022/04/27 01:25:55;;;;;;;14.80;2.67;;;;;;;16.75;68.21;100238.41;5077693;28;20036;-85
2022/04/27 01:28:24;;;;;;;7.97;2.40;;;;;;;16.87;67.95;100263.16;5071901;28;20076;-86
2022/04/27 01:30:56;;;;;;;11.13;2.80;;;;;;;16.86;68.15;100264.31;5074093;28;20055;-86
2022/04/27 01:33:24;;;;;;;12.85;2.05;;;;;;;16.86;68.01;100265.16;5071986;28;20118;-82
2022/04/27 01:35:52;;;;;;;11.30;2.08;;;;;;;16.84;67.97;100267.47;5069844;28;20098;-84
2022/04/27 01:38:19;;;;;;;8.50;2.50;;;;;;;16.95;68.03;100280.06;5073264;28;20126;-86
2022/04/27 01:40:47;;;;;;;7.32;2.05;;;;;;;16.81;67.71;100252.00;5066958;28;20056;-76
2022/04/27 01:43:15;;;;;;;10.23;2.15;;;;;;;16.83;68.03;100267.81;5069149;28;20496;-77
2022/04/27 01:45:43;;;;;;;8.85;1.95;;;;;;;16.78;67.91;100254.66;5070395;28;20106;-76
2022/04/27 01:48:13;;;;;;;7.90;2.30;;;;;;;16.75;68.15;100260.97;5069767;28;20079;-78
2022/04/27 01:50:40;;;;;;;9.52;2.15;;;;;;;16.51;68.31;100224.72;5068403;28;20049;-78
2022/04/27 01:55:52;;;;;;;11.43;2.42;;;;;;;16.76;68.42;100271.94;5069463;28;20224;-78
2022/04/27 01:58:19;;;;;;;6.30;2.10;;;;;;;16.53;67.95;100244.97;5073589;28;20064;-75
2022/04/27 02:00:47;;;;;;;11.77;2.55;;;;;;;16.67;68.27;100267.41;5075899;28;20094;-75
2022/04/27 02:03:15;;;;;;;9.48;2.90;;;;;;;16.60;68.65;100270.69;5075644;28;20558;-75
2022/04/27 02:05:42;;;;;;;9.98;2.15;;;;;;;16.59;68.57;100269.03;5071134;28;20455;-75
2022/04/27 02:08:09;;;;;;;11.32;2.35;;;;;;;16.23;68.54;100233.44;5074443;28;20837;-77
2022/04/27 02:10:37;;;;;;;10.98;2.05;;;;;;;16.47;68.29;100280.94;5069416;28;20071;-77
2022/04/27 02:13:08;;;;;;;11.48;1.92;;;;;;;16.44;68.50;100266.66;5074760;28;20529;-76
2022/04/27 02:15:36;;;;;;;10.70;2.70;;;;;;;16.30;68.23;100253.53;5076340;28;20518;-78
2022/04/27 02:18:04;;;;;;;3.95;2.35;;;;;;;16.29;68.39;100257.50;5074806;28;20557;-80
2022/04/27 02:20:31;;;;;;;16.30;2.75;;;;;;;16.00;68.62;100232.72;5073611;28;20375;-83
2022/04/27 02:22:58;;;;;;;6.40;2.88;;;;;;;16.14;68.74;100249.50;5074125;28;20392;-81
2022/04/27 02:25:25;;;;;;;7.32;2.42;;;;;;;15.79;68.51;100192.19;5069650;28;20063;-81
2022/04/27 02:27:52;;;;;;;15.18;2.10;;;;;;;16.06;68.36;100236.19;5071804;28;20076;-80
2022/04/27 02:30:19;;;;;;;9.27;2.60;;;;;;;16.12;68.97;100260.25;5071150;28;20109;-80
2022/04/27 02:32:46;;;;;;;12.55;2.42;;;;;;;16.03;68.99;100260.25;5073694;28;20048;-81
2022/04/27 02:35:14;;;;;;;5.10;2.00;;;;;;;15.52;68.67;100165.88;5074722;28;20519;-82
2022/04/27 02:37:41;;;;;;;13.05;2.08;;;;;;;16.08;68.96;100250.81;5074616;28;20159;-81
2022/04/27 02:40:10;;;;;;;7.50;1.67;;;;;;;16.04;68.95;100228.09;5071117;28;20059;-83
2022/04/27 02:42:37;;;;;;;10.00;2.22;;;;;;;16.23;68.45;100255.16;5072642;28;20048;-82
2022/04/27 02:45:04;;;;;;;6.90;2.38;;;;;;;16.28;68.50;100261.50;5070325;28;20045;-79
2022/04/27 02:47:31;;;;;;;5.80;2.17;;;;;;;16.33;68.20;100257.69;5069717;28;20080;-79
2022/04/27 02:52:46;;;;;;;12.02;3.03;;;;;;;16.27;68.69;100271.09;5072929;28;20072;-79
2022/04/27 02:55:13;;;;;;;11.23;2.27;;;;;;;16.02;68.92;100255.75;5072555;28;20098;-79
2022/04/27 02:57:40;;;;;;;12.15;4.53;;;;;;;15.99;69.52;100270.47;5070141;28;20706;-79
2022/04/27 03:00:07;;;;;;;18.00;6.40;;;;;;;15.78;68.97;100236.41;5072034;28;20076;-79
2022/04/27 03:02:35;;;;;;;12.68;5.03;;;;;;;15.99;69.05;100255.56;5071946;28;20072;-80
2022/04/27 03:05:03;;;;;;;16.90;6.00;;;;;;;15.97;68.84;100257.88;5072764;28;20105;-76
2022/04/27 03:07:30;;;;;;;14.15;4.55;;;;;;;15.78;68.90;100232.75;5070447;28;20561;-75
2022/04/27 03:09:57;;;;;;;11.43;4.53;;;;;;;15.91;69.17;100254.38;5073045;28;20102;-71
2022/04/27 03:12:23;;;;;;;14.07;3.80;;;;;;;15.73;69.11;100221.66;5072104;28;20463;-71
2022/04/27 03:14:50;;;;;;;13.88;4.15;;;;;;;15.92;69.32;100266.47;5073970;28;20086;-71
2022/04/27 03:17:17;;;;;;;8.30;2.85;;;;;;;16.02;69.25;100277.44;5072955;28;20499;-71
2022/04/27 03:19:44;;;;;;;11.75;3.17;;;;;;;15.91;69.76;100270.44;5072894;28;20126;-71
2022/04/27 03:22:11;;;;;;;8.43;2.75;;;;;;;16.01;69.56;100284.25;5063564;28;20048;-71
2022/04/27 03:24:38;;;;;;;12.00;2.70;;;;;;;15.88;69.58;100274.72;5070754;28;20048;-71
2022/04/27 03:27:10;;;;;;;6.40;3.00;;;;;;;15.76;69.52;100261.25;5070718;28;20040;-72
2022/04/27 03:29:37;;;;;;;11.85;3.92;;;;;;;15.83;69.16;100270.06;5066490;28;20591;-76
2022/04/27 03:32:06;;;;;;;14.00;2.55;;;;;;;15.70;69.30;100248.47;5068921;28;20109;-76
2022/04/27 03:34:32;;;;;;;14.23;2.72;;;;;;;15.69;69.62;100260.88;5069998;28;20088;-73
2022/04/27 03:37:00;;;;;;;9.00;2.67;;;;;;;15.64;69.61;100252.53;5072151;28;20044;-72
2022/04/27 03:39:27;;;;;;;9.45;2.50;;;;;;;15.82;69.43;100276.84;5071169;28;20470;-75
2022/04/27 03:42:08;;;;;;;6.22;2.80;;;;;;;15.76;69.71;100278.16;5070006;28;20117;-73
2022/04/27 03:44:35;;;;;;;14.55;3.40;;;;;;;15.51;69.43;100228.09;5072814;28;20048;-74
2022/04/27 03:47:03;;;;;;;8.15;3.35;;;;;;;15.60;69.98;100245.88;5071473;28;20052;-73
2022/04/27 03:49:30;;;;;;;5.40;2.80;;;;;;;15.63;69.65;100251.72;5071658;28;20049;-71
2022/04/27 03:51:58;;;;;;;10.13;2.47;;;;;;;15.68;69.55;100244.31;5068309;28;20083;-72
2022/04/27 03:54:25;;;;;;;13.45;3.20;;;;;;;15.72;69.78;100253.75;5063531;28;20053;-72
2022/04/27 03:56:52;;;;;;;5.63;2.75;;;;;;;15.24;69.63;100170.00;5082289;28;20088;-74
2022/04/27 03:59:19;;;;;;;6.78;2.67;;;;;;;15.63;69.90;100248.06;5068538;28;20048;-72
2022/04/27 04:01:46;;;;;;;11.57;3.17;;;;;;;15.26;69.81;100188.25;5070303;28;20076;-74
2022/04/27 04:04:13;;;;;;;6.18;3.20;;;;;;;15.75;69.92;100268.03;5067285;28;20135;-74
2022/04/27 04:06:40;;;;;;;10.77;3.35;;;;;;;15.36;70.25;100230.16;5069307;28;20048;-75
2022/04/27 04:09:09;;;;;;;6.53;3.58;;;;;;;15.49;70.33;100261.38;5068924;28;20056;-77
2022/04/27 04:11:37;;;;;;;12.60;3.17;;;;;;;15.27;70.32;100228.44;5068286;28;20392;-76
2022/04/27 04:14:04;;;;;;;5.75;3.38;;;;;;;15.30;70.71;100241.88;5066549;28;20076;-76
2022/04/27 04:16:30;;;;;;;9.05;3.38;;;;;;;15.44;70.44;100272.75;5070132;28;20080;-77
2022/04/27 04:18:57;;;;;;;13.27;3.53;;;;;;;15.41;70.54;100274.22;5070851;28;20040;-76
2022/04/27 04:21:26;;;;;;;8.48;3.55;;;;;;;15.27;70.94;100265.84;5072903;28;20048;-77
2022/04/27 04:23:53;;;;;;;12.40;3.03;;;;;;;15.21;71.28;100272.75;5074760;28;20499;-78
2022/04/27 04:29:05;;;;;;;6.32;3.53;;;;;;;15.06;71.44;100273.13;5071186;28;20095;-79
2022/04/27 04:31:32;;;;;;;7.80;3.38;;;;;;;14.76;71.54;100224.88;5071428;28;20052;-79
2022/04/27 04:33:59;;;;;;;5.85;2.80;;;;;;;14.93;71.80;100252.31;5066798;28;20392;-78
2022/04/27 04:36:29;;;;;;;6.90;3.40;;;;;;;15.01;71.77;100276.03;5062257;28;20044;-75
2022/04/27 04:38:57;;;;;;;7.15;3.60;;;;;;;14.90;71.81;100259.41;5071249;28;20094;-76
2022/04/27 04:41:23;;;;;;;16.30;4.78;;;;;;;15.05;71.36;100272.28;5066577;28;20072;-73
2022/04/27 04:43:50;;;;;;;10.10;3.60;;;;;;;15.06;71.88;100281.56;5069027;28;20049;-73
2022/04/27 04:46:17;;;;;;;10.02;4.43;;;;;;;14.67;71.82;100224.81;5066915;28;20561;-74
2022/04/27 04:48:44;;;;;;;12.68;4.60;;;;;;;14.93;71.88;100278.44;5063678;28;20492;-76
2022/04/27 04:51:11;;;;;;;8.43;3.80;;;;;;;14.64;71.88;100221.81;5054508;28;20075;-77
2022/04/27 04:53:58;;;;;;;6.93;3.73;;;;;;;14.96;72.10;100293.03;5070410;28;20056;-76
2022/04/27 04:56:25;;;;;;;8.38;3.15;;;;;;;14.76;72.12;100257.78;5068051;28;20053;-73
2022/04/27 04:58:52;;;;;;;11.43;4.40;;;;;;;15.00;72.00;100292.09;5067883;28;20049;-73
2022/04/27 05:01:19;;;;;;;7.38;3.35;;;;;;;15.01;71.59;100278.84;5057425;28;20106;-73
2022/04/27 05:03:46;;;;;;;5.05;3.75;;;;;;;14.83;71.61;100239.34;5068675;28;20098;-71
2022/04/27 05:06:14;;;;;;;11.77;3.42;;;;;;;14.92;71.93;100271.19;5067775;28;20052;-73
2022/04/27 05:08:41;;;;;;;11.67;4.10;;;;;;;14.76;71.84;100249.34;5066899;28;20129;-73
2022/04/27 05:11:08;;;;;;;13.13;4.10;;;;;;;15.02;71.71;100289.78;5078569;28;20084;-74
2022/04/27 05:13:39;;;;;;;13.98;3.53;;;;;;;14.92;72.33;100290.84;5068143;28;20573;-72
2022/04/27 05:16:06;;;;;;;8.77;4.38;;;;;;;14.76;71.61;100260.59;5066591;28;20106;-76
2022/04/27 05:18:33;;;;;;;12.95;5.20;;;;;;;14.62;71.64;100247.41;5073332;28;20083;-74
2022/04/27 05:21:00;;;;;;;12.45;3.17;;;;;;;14.89;71.58;100285.88;5070224;28;20125;-72
2022/04/27 05:23:27;;;;;;;10.60;4.30;;;;;;;14.90;71.41;100287.53;5068606;28;20080;-74
2022/04/27 05:25:54;;;;;;;7.70;3.60;;;;;;;14.93;71.33;100294.50;5074351;28;20071;-77
2022/04/27 05:28:22;;;;;;;10.25;3.95;;;;;;;14.92;71.26;100299.28;5088364;28;20040;-78
2022/04/27 05:33:53;;;;;;;9.05;4.05;;;;;;;15.00;71.13;100313.75;5053127;28;20049;-73
2022/04/27 05:36:20;;;;;;;9.77;4.13;;;;;;;15.01;71.09;100309.78;5049881;28;20049;-75
2022/04/27 05:38:49;;;;;;;7.03;2.80;;;;;;;14.95;71.08;100295.03;5042569;28;20434;-72
2022/04/27 05:41:19;;;;;;;11.35;4.05;;;;;;;14.98;71.26;100302.00;5049959;28;20083;-74
2022/04/27 05:43:47;;;;;;;8.27;3.58;;;;;;;15.18;70.95;100324.03;5033569;28;20049;-71
2022/04/27 05:46:13;;;;;;;9.90;3.78;;;;;;;15.18;70.80;100326.84;5043214;28;20085;-69
2022/04/27 05:48:41;;;;;;;11.13;4.20;;;;;;;15.09;70.79;100323.13;5044416;28;20091;-74
2022/04/27 05:51:07;;;;;;;14.05;4.32;;;;;;;15.10;71.08;100338.81;5030813;28;20049;-73
2022/04/27 05:53:34;;;;;;;6.72;3.45;;;;;;;14.73;70.99;100272.47;5050216;28;20084;-72
2022/04/27 05:56:02;;;;;;;8.02;3.65;;;;;;;15.21;70.59;100342.22;5041414;28;20436;-72
2022/04/27 05:58:32;;;;;;;6.22;3.45;;;;;;;14.84;70.67;100300.06;5045930;28;20574;-72
2022/04/27 06:00:59;;;;;;;11.45;3.55;;;;;;;15.06;71.03;100338.63;5043798;28;20049;-72
2022/04/27 06:03:26;;;;;;;11.90;4.03;;;;;;;14.92;70.98;100318.97;5069268;28;20568;-73
2022/04/27 06:05:53;;;;;;;9.88;3.13;;;;;;;15.02;71.02;100334.78;5068094;28;20052;-72
2022/04/27 06:08:20;;;;;;;11.07;3.45;;;;;;;14.95;70.81;100336.38;5071715;28;20072;-73
2022/04/27 06:10:54;;;;;;;8.77;2.88;;;;;;;15.06;70.74;100349.06;5069238;28;20052;-72
2022/04/27 06:13:21;;;;;;;10.85;4.03;;;;;;;15.01;70.97;100350.00;5062127;28;20068;-73
2022/04/27 06:15:47;;;;;;;6.95;3.33;;;;;;;14.85;71.03;100338.25;5069409;28;20106;-73
2022/04/27 06:18:14;;;;;;;11.32;3.38;;;;;;;15.03;70.80;100363.75;5062828;28;20049;-81
2022/04/27 06:20:42;;;;;;;18.52;4.15;;;;;;;15.19;70.70;100370.69;5062301;28;20103;-75
2022/04/27 06:23:14;;;;;;;9.77;4.13;;;;;;;15.10;70.65;100366.94;5071372;28;20579;-75
2022/04/27 06:25:41;;;;;;;11.07;3.38;;;;;;;14.99;70.94;100351.47;5069063;28;20492;-75
2022/04/27 06:28:08;;;;;;;8.63;3.45;;;;;;;15.02;70.83;100353.66;5067911;28;20109;-75
2022/04/27 06:30:35;;;;;;;8.07;3.13;;;;;;;14.94;70.73;100349.59;5065483;28;20492;-73
2022/04/27 06:33:03;;;;;;;10.85;3.80;;;;;;;15.01;70.89;100366.88;5070675;28;20106;-77
2022/04/27 06:35:30;;;;;;;11.63;3.85;;;;;;;14.52;70.82;100288.94;5071520;28;20105;-76
2022/04/27 06:37:57;;;;;;;10.52;4.95;;;;;;;15.02;71.01;100362.09;5064762;28;20083;-76
2022/04/27 06:40:25;;;;;;;7.00;3.50;;;;;;;14.90;70.96;100346.56;5072171;28;20461;-76
2022/04/27 06:42:53;;;;;;;11.25;3.60;;;;;;;14.84;70.84;100353.47;5068905;28;20049;-75
2022/04/27 06:45:20;;;;;;;21.35;4.18;;;;;;;14.91;70.93;100378.34;5073475;28;20084;-75
2022/04/27 06:47:47;;;;;;;8.07;3.80;;;;;;;14.81;71.12;100359.72;5065344;28;20083;-76
2022/04/27 06:50:14;;;;;;;13.77;3.42;;;;;;;14.77;71.04;100358.69;5061535;28;20076;-76
2022/04/27 06:52:47;;;;;;;10.57;3.05;;;;;;;14.88;70.92;100382.63;5072548;28;20087;-75
2022/04/27 06:55:16;;;;;;;7.47;2.72;;;;;;;14.65;70.97;100358.38;5071428;28;20127;-75
2022/04/27 06:57:44;;;;;;;9.77;3.60;;;;;;;14.69;71.04;100370.63;5072191;28;20056;-75
2022/04/27 07:00:12;;;;;;;9.47;3.63;;;;;;;14.85;70.83;100400.09;5070992;28;20130;-75
2022/04/27 07:02:39;;;;;;;9.90;3.80;;;;;;;14.48;70.92;100355.31;5071449;28;20573;-75
2022/04/27 07:05:09;;;;;;;6.88;3.85;;;;;;;14.54;70.66;100359.72;5073397;28;20133;-75
2022/04/27 07:07:36;;;;;;;5.15;3.30;;;;;;;14.79;70.94;100406.16;5071070;28;20052;-76
2022/04/27 07:10:04;;;;;;;8.53;3.90;;;;;;;14.89;70.59;100412.38;5075287;28;20056;-76
2022/04/27 07:12:30;;;;;;;11.20;2.90;;;;;;;14.82;70.80;100395.09;5075179;28;20102;-76
2022/04/27 07:14:57;;;;;;;9.05;2.90;;;;;;;15.05;70.69;100418.53;5073389;28;20053;-76
2022/04/27 07:17:24;;;;;;;8.82;3.38;;;;;;;15.37;70.82;100427.97;5074508;28;20052;-76
2022/04/27 07:19:51;;;;;;;6.85;3.03;;;;;;;15.85;70.18;100425.44;5074750;28;20107;-75
2022/04/27 07:22:18;;;;;;;12.63;3.97;;;;;;;16.11;69.05;100394.66;5064871;28;20102;-76
2022/04/27 07:24:45;;;;;;;9.55;3.60;;;;;;;16.60;68.11;100422.94;5075424;28;20098;-76
2022/04/27 07:27:12;;;;;;;8.20;3.80;;;;;;;16.95;67.79;100425.91;5073826;28;20542;-76
2022/04/27 07:29:39;;;;;;;7.10;4.03;;;;;;;17.27;66.96;100425.53;5073318;28;20110;-75
2022/04/27 07:32:06;;;;;;;8.52;4.13;;;;;;;17.62;66.84;100408.63;5073143;28;20102;-75
2022/04/27 07:34:33;;;;;;;13.45;5.00;;;;;;;18.11;65.78;100433.91;5071739;28;20461;-76
2022/04/27 07:37:02;;;;;;;8.93;3.75;;;;;;;18.59;65.10;100449.75;5071506;28;20078;-75
2022/04/27 07:39:29;;;;;;;6.10;3.22;;;;;;;18.53;64.84;100418.03;5071726;28;20041;-76
2022/04/27 07:41:56;;;;;;;14.52;4.43;;;;;;;18.64;64.15;100441.94;5072600;28;20048;-76
2022/04/27 07:44:24;;;;;;;8.27;4.25;;;;;;;18.55;64.16;100398.69;5066203;28;20052;-76
2022/04/27 07:46:51;;;;;;;10.27;3.38;;;;;;;19.17;63.04;100449.06;5068873;28;20060;-75
2022/04/27 07:49:19;;;;;;;6.82;2.95;;;;;;;19.32;62.84;100455.31;5064985;28;20044;-76
2022/04/27 07:51:48;;;;;;;9.13;3.40;;;;;;;19.51;62.16;100450.00;5061792;28;20099;-76
2022/04/27 07:54:15;;;;;;;14.40;3.63;;;;;;;19.51;61.76;100446.34;5071597;28;20499;-75
2022/04/27 07:56:42;;;;;;;13.32;4.88;;;;;;;19.46;61.73;100427.56;5070321;28;20102;-75
2022/04/27 07:59:09;;;;;;;18.00;4.35;;;;;;;19.78;60.91;100467.69;5071104;28;20041;-76
2022/04/27 08:01:36;;;;;;;6.75;3.38;;;;;;;19.91;60.56;100471.44;5071376;28;20575;-76
2022/04/27 08:04:04;;;;;;;11.73;3.83;;;;;;;20.08;60.23;100469.28;5073730;28;20052;-76
2022/04/27 08:06:31;;;;;;;8.10;3.30;;;;;;;20.06;59.99;100450.97;5073417;28;20495;-76
2022/04/27 08:08:58;;;;;;;14.43;3.28;;;;;;;20.15;59.15;100448.06;5068850;28;21285;-76
2022/04/27 08:11:25;;;;;;;7.30;3.20;;;;;;;19.86;59.47;100384.59;5058986;28;20145;-75
2022/04/27 08:13:52;;;;;;;12.32;3.15;;;;;;;20.21;58.52;100413.47;5067601;28;20082;-75
2022/04/27 08:16:19;;;;;;;5.88;2.83;;;;;;;20.46;57.77;100431.38;5064280;28;20044;-75
2022/04/27 08:18:46;;;;;;;11.10;2.83;;;;;;;20.73;57.93;100441.28;5071034;28;20434;-76
2022/04/27 08:21:16;;;;;;;10.43;3.30;;;;;;;21.12;56.73;100449.47;5073850;28;20059;-76
2022/04/27 08:23:43;;;;;;;;;;;;;;;21.27;56.96;100451.63;5069700;28;20056;-76
2022/04/27 08:26:11;;;;;;;9.48;3.25;;;;;;;21.44;56.11;100453.44;5074144;28;19966;-76
2022/04/27 08:28:39;;;;;;;5.80;2.80;;;;;;;21.68;55.76;100469.63;5062944;28;20098;-74
2022/04/27 08:31:09;;;;;;;9.65;3.30;;;;;;;21.50;55.08;100444.31;5059910;28;20053;-76
2022/04/27 08:33:36;;;;;;;7.70;2.83;;;;;;;21.57;54.21;100452.19;5068351;28;20044;-76
2022/04/27 08:36:04;;;;;;;5.03;2.33;;;;;;;22.24;54.31;100472.56;5063540;28;20057;-75
2022/04/27 08:38:51;;;;;;;5.43;2.38;;;;;;;22.75;53.69;100466.25;5068930;28;20427;-76
2022/04/27 08:41:19;;;;;;;9.68;2.92;;;;;;;22.58;52.73;100393.44;5072717;28;20606;-76
2022/04/27 08:43:46;;;;;;;12.70;2.30;;;;;;;23.08;52.24;100469.63;5065010;28;20068;-76
2022/04/27 08:46:17;;;;;;;4.45;1.45;;;;;;;22.83;51.56;100451.84;5068543;28;20052;-76
2022/04/27 08:48:48;;;;;;;3.42;1.48;;;;;;;22.61;51.15;100466.69;5066256;28;20051;-75
2022/04/27 08:51:15;;;;;;;5.32;2.30;;;;;;;22.66;51.49;100474.97;5066760;28;20113;-76
2022/04/27 08:53:43;;;;;;;6.65;1.60;;;;;;;22.30;51.53;100433.31;5069800;28;20048;-76
2022/04/27 08:56:10;;;;;;;6.63;2.80;;;;;;;21.91;50.86;100465.03;5072118;28;20049;-76
2022/04/27 08:58:37;;;;;;;6.05;2.30;;;;;;;21.19;51.65;100435.53;5069742;28;20488;-76
2022/04/27 09:01:08;;;;;;;4.32;1.63;;;;;;;21.08;52.37;100493.97;5061307;28;20048;-75
2022/04/27 09:03:37;;;;;;;5.82;2.00;;;;;;;20.57;52.25;100465.84;5060402;28;20421;-76
2022/04/27 09:06:12;;;;;;;8.10;2.33;;;;;;;20.09;53.05;100462.44;5056799;28;20056;-77
2022/04/27 09:08:46;;;;;;;6.70;2.38;;;;;;;19.97;53.64;100482.22;5066717;28;20048;-77
2022/04/27 09:11:25;;;;;;;13.20;2.90;;;;;;;19.82;54.08;100492.16;5073296;28;20052;-76
2022/04/27 09:13:59;;;;;;;7.20;2.38;;;;;;;19.69;54.55;100476.25;5066053;28;20059;-77
2022/04/27 09:20:46;;;;;;;8.65;2.45;;;;;;;19.39;54.82;100447.13;5065278;28;20133;-79
2022/04/27 09:22:06;;;;;;;5.95;2.15;;;;;;;19.51;55.23;100492.50;5062413;28;20052;-76
2022/04/27 09:25:03;;;;;;;10.52;2.20;;;;;;;19.86;55.23;100493.16;5075451;28;20122;-77
2022/04/27 09:27:29;;;;;;;4.47;2.15;;;;;;;20.30;54.69;100485.09;5061069;28;20056;-78
2022/04/27 09:30:10;;;;;;;4.25;1.55;;;;;;;20.31;54.61;100481.09;5073008;28;20408;-76
2022/04/27 09:32:37;;;;;;;;;;;;;;;20.22;55.49;100502.19;5074803;28;20086;-76
2022/04/27 09:35:08;;;;;;;9.43;1.70;;;;;;;20.48;54.93;100491.44;5075363;28;19931;-76
2022/04/27 09:37:43;;;;;;;3.08;1.77;;;;;;;20.78;54.27;100494.13;5066971;28;20072;-76
2022/04/27 09:40:12;;;;;;;8.77;2.67;;;;;;;21.39;53.78;100508.44;5071361;28;20048;-76
2022/04/27 09:42:43;;;;;;;6.20;2.10;;;;;;;22.27;52.49;100499.47;5072822;28;20087;-76
2022/04/27 09:45:20;;;;;;;7.10;1.42;;;;;;;22.81;51.39;100511.19;5071908;28;20101;-76
2022/04/27 09:47:50;;;;;;;4.20;1.77;;;;;;;23.16;50.70;100522.72;5072114;28;20053;-76
2022/04/27 09:50:18;;;;;;;2.67;1.90;;;;;;;23.59;49.70;100522.97;5072277;28;20048;-76
2022/04/27 09:52:45;;;;;;;4.82;1.42;;;;;;;23.89;48.90;100509.06;5069459;28;20072;-78
2022/04/27 09:55:13;;;;;;;4.95;1.20;;;;;;;23.37;49.03;100485.41;5069002;28;20052;-77
2022/04/27 09:57:54;;;;;;;5.10;1.70;;;;;;;23.56;49.11;100518.03;5059585;28;20068;-77
2022/04/27 10:00:22;;;;;;;5.35;1.40;;;;;;;23.21;48.20;100484.56;5062979;28;20052;-76
2022/04/27 10:02:50;;;;;;;5.70;1.38;;;;;;;22.96;48.54;100511.59;5060795;28;20052;-75
2022/04/27 10:05:17;;;;;;;3.78;1.15;;;;;;;22.12;49.51;100462.03;5064708;28;20557;-77
2022/04/27 10:07:46;;;;;;;1.48;0.90;;;;;;;22.19;49.52;100512.66;5069145;28;20053;-77
2022/04/27 10:10:16;;;;;;;4.10;1.38;;;;;;;22.66;49.50;100506.25;5068653;28;20044;-76
2022/04/27 10:12:43;;;;;;;3.80;1.42;;;;;;;23.15;48.81;100461.25;5071116;28;20153;-75
2022/04/27 10:15:10;;;;;;;4.13;1.30;;;;;;;23.79;47.41;100481.94;5069433;28;20045;-74
2022/04/27 10:17:39;;;;;;;3.47;1.23;;;;;;;24.41;46.62;100529.78;5071523;28;20052;-75
2022/04/27 10:20:32;;;;;;;3.63;1.37;;;;;;;24.93;46.59;100525.56;5067414;28;20048;-76
2022/04/27 10:23:22;;;;;;;2.08;1.13;;;;;;;25.33;45.67;100536.50;5073302;28;20102;-76
2022/04/27 10:26:08;;;;;;;6.43;1.63;;;;;;;25.51;45.25;100542.56;5071160;28;20107;-76
2022/04/27 10:28:38;;;;;;;5.85;1.08;;;;;;;25.82;44.92;100540.66;5071863;28;20044;-75
2022/04/27 10:31:08;;;;;;;1.23;0.93;;;;;;;26.21;44.13;100530.59;5067124;28;20098;-76
2022/04/27 10:33:51;;;;;;;4.30;1.27;;;;;;;26.32;43.76;100524.19;5071881;28;20055;-76
2022/04/27 10:36:22;;;;;;;7.38;1.95;;;;;;;26.07;43.41;100541.84;5069476;28;20102;-76
2022/04/27 10:39:10;;;;;;;4.82;1.30;;;;;;;25.76;44.33;100540.94;5065656;28;20145;-76
2022/04/27 10:42:16;;;;;;;5.20;1.70;;;;;;;25.31;44.11;100492.41;5067271;28;20076;-76
2022/04/27 10:44:55;;;;;;;6.00;1.70;;;;;;;25.10;44.74;100547.94;5068528;28;20049;-76
2022/04/27 10:47:22;;;;;;;4.38;1.77;;;;;;;25.31;44.30;100549.56;5062091;28;20086;-76
2022/04/27 10:50:13;;;;;;;4.15;1.60;;;;;;;25.77;44.23;100541.75;5069807;28;20048;-77
2022/04/27 10:52:50;;;;;;;5.35;1.75;;;;;;;26.05;43.86;100552.00;5074157;28;20052;-76
2022/04/27 10:55:38;;;;;;;8.18;2.10;;;;;;;26.55;43.47;100555.59;5069445;28;20526;-75
2022/04/27 10:58:32;;;;;;;3.92;2.00;;;;;;;27.69;41.94;100533.88;5066059;28;20092;-77
2022/04/27 11:01:02;;;;;;;5.53;1.65;;;;;;;28.54;40.35;100573.84;5072069;28;20041;-76
2022/04/27 11:03:31;;;;;;;6.30;1.67;;;;;;;28.00;40.00;100480.00;5066529;28;20048;-76
2022/04/27 11:06:00;;;;;;;3.05;1.20;;;;;;;28.12;40.15;100557.16;5066959;28;20083;-77
2022/04/27 11:08:36;;;;;;;4.55;1.27;;;;;;;27.94;40.45;100547.63;5062838;28;20048;-78
2022/04/27 11:11:07;;;;;;;6.15;1.48;;;;;;;27.14;40.60;100503.06;5068839;28;20040;-77
2022/04/27 11:13:36;;;;;;;2.28;1.05;;;;;;;27.20;41.11;100554.34;5066919;28;20145;-76
2022/04/27 11:16:10;;;;;;;1.88;0.90;;;;;;;26.96;41.05;100538.50;5071011;28;20098;-77
2022/04/27 11:18:59;;;;;;;8.40;1.65;;;;;;;26.54;41.19;100537.59;5069027;28;20132;-76
2022/04/27 11:21:29;;;;;;;3.28;1.38;;;;;;;25.82;41.25;100489.97;5068094;28;20053;-77
2022/04/27 11:24:00;;;;;;;5.43;0.98;;;;;;;25.55;41.49;100523.44;5069800;28;20489;-79
2022/04/27 11:26:28;;;;;;;3.67;1.17;;;;;;;25.52;42.60;100539.31;5067228;28;20094;-76
2022/04/27 11:28:57;;;;;;;6.20;1.45;;;;;;;25.45;42.16;100527.75;5071592;28;20098;-77
2022/04/27 11:31:25;;;;;;;4.88;1.75;;;;;;;24.92;42.98;100515.31;5072433;28;20061;-77
2022/04/27 11:33:52;;;;;;;1.98;1.35;;;;;;;24.67;43.15;100523.41;5069392;28;20100;-76
2022/04/27 11:36:21;;;;;;;4.82;1.67;;;;;;;25.11;43.08;100535.31;5063464;28;20044;-77
2022/04/27 11:38:48;;;;;;;2.78;1.05;;;;;;;25.22;42.48;100489.78;5068329;28;20097;-79
2022/04/27 11:41:16;;;;;;;2.53;1.23;;;;;;;25.57;42.34;100518.13;5068039;28;20044;-77
2022/04/27 11:43:43;;;;;;;5.93;1.35;;;;;;;25.62;41.87;100492.09;5072669;28;20044;-77
2022/04/27 11:46:10;;;;;;;2.83;1.50;;;;;;;26.45;41.03;100508.41;5068554;28;20048;-78